Wetterdaten von Putzkau
Wetterdaten: aktuell Dienstag, 21.09.2021 17:00
Datum Zeit Temp. A. Feuchte A. Luftdruck Regen Wind Windben
21.09.2021 17:00 12,5 C 76 % 1029,3 hPa 0,0 l/m 0,0 km/h (0 Bft) 0,0 km/h (0 Bft)
21.09.2021 16:00 12,6 C 75 % 1028,5 hPa 0,0 l/m 0,0 km/h (0 Bft) 0,0 km/h (0 Bft)
21.09.2021 15:44 12,6 C 75 % 1028,5 hPa 0,0 l/m 0,0 km/h (0 Bft) 0,0 km/h (0 Bft)
21.09.2021 14:44 13,4 C 73 % 1028,1 hPa 0,0 l/m 0,2 km/h (0 Bft) 0,0 km/h (0 Bft)
21.09.2021 13:44 13,5 C 71 % 1027,8 hPa 0,0 l/m 0,2 km/h (0 Bft) 0,0 km/h (0 Bft)
21.09.2021 12:44 15,0 C 70 % 1028,2 hPa 0,0 l/m 0,8 km/h (0 Bft) 3,4 km/h (1 Bft)
21.09.2021 11:44 12,6 C 80 % 1028,4 hPa 0,0 l/m 0,3 km/h (0 Bft) 1,6 km/h (1 Bft)
21.09.2021 10:44 11,2 C 86 % 1028,6 hPa 0,0 l/m 0,0 km/h (0 Bft) 0,0 km/h (0 Bft)
21.09.2021 09:44 10,4 C 89 % 1028,0 hPa 0,0 l/m 0,0 km/h (0 Bft) 0,0 km/h (0 Bft)
21.09.2021 08:44 9,8 C 91 % 1027,9 hPa 0,0 l/m 0,0 km/h (0 Bft) 0,0 km/h (0 Bft)
21.09.2021 07:44 9,0 C 91 % 1027,4 hPa 0,0 l/m 0,2 km/h (0 Bft) 0,0 km/h (0 Bft)
21.09.2021 06:44 8,4 C 92 % 1027,7 hPa 0,0 l/m 0,0 km/h (0 Bft) 0,0 km/h (0 Bft)
21.09.2021 05:44 8,4 C 92 % 1026,4 hPa 0,0 l/m 0,0 km/h (0 Bft) 0,0 km/h (0 Bft)
21.09.2021 04:44 8,3 C 91 % 1026,2 hPa 0,0 l/m 0,0 km/h (0 Bft) 0,0 km/h (0 Bft)
21.09.2021 03:44 8,4 C 91 % 1026,1 hPa 0,0 l/m 0,0 km/h (0 Bft) 0,0 km/h (0 Bft)
21.09.2021 02:44 8,5 C 91 % 1026,1 hPa 0,0 l/m 0,0 km/h (0 Bft) 0,0 km/h (0 Bft)
21.09.2021 01:44 8,7 C 90 % 1026,3 hPa 0,0 l/m 0,0 km/h (0 Bft) 0,0 km/h (0 Bft)
21.09.2021 00:44 8,8 C 90 % 1026,4 hPa 0,0 l/m 0,0 km/h (0 Bft) 0,0 km/h (0 Bft)
20.09.2021 23:44 8,8 C 89 % 1026,2 hPa 0,0 l/m 0,0 km/h (0 Bft) 0,0 km/h (0 Bft)
20.09.2021 22:44 9,1 C 88 % 1026,0 hPa 0,0 l/m 0,0 km/h (0 Bft) 0,0 km/h (0 Bft)
20.09.2021 21:44 9,3 C 87 % 1026,3 hPa 0,0 l/m 0,0 km/h (0 Bft) 0,0 km/h (0 Bft)
20.09.2021 20:44 9,6 C 86 % 1025,9 hPa 0,0 l/m 0,0 km/h (0 Bft) 0,0 km/h (0 Bft)
20.09.2021 20:00 10,1 C 83 % 1025,1 hPa 0,0 l/m 0,0 km/h (0 Bft) 0,0 km/h (0 Bft)
20.09.2021 19:10 11,1 C 80 % 1024,4 hPa 0,0 l/m 0,0 km/h (0 Bft) 0,0 km/h (0 Bft)
20.09.2021 18:14 11,4 C 79 % 1024,3 hPa 0,0 l/m 0,0 km/h (0 Bft) 0,0 km/h (0 Bft)
_ Min-Zeit 06:14 12:44 18:14 - 17:00 17:00
Minimum _ 8,3 C 70 % 1024,3 hPa - 0,0 km/h (0 Bft) 0,0 km/h (0 Bft)
_ Max-Zeit 12:44 07:14 17:00 17:00 12:44 12:44
Maximum _ 15,0 C 92 % 1029,3 hPa 0,0 l/m 0,8 km/h
NW (0 Bft)
3,4 km/h
NW (1 Bft)
Durchschnitt _ 10,4 C 85 % 1026,8 hPa #0,0 l/m 0,1 km/h (0 Bft) 0,1 km/h (0 Bft)
© 2021 Michael Jger webmaster [at] putzkau.de